sensor_id;sensor_type;location;lat;lon;timestamp;pressure;altitude;pressure_sealevel;temperature;humidity
46886;BME280;32622;48.202;11.326;2022-11-20T00:00:31;1013.61;;;6.61;34.58
46886;BME280;32622;48.202;11.326;2022-11-20T00:02:34;1013.86;;;5.66;36.16
46886;BME280;32622;48.202;11.326;2022-11-20T00:04:37;1013.72;;;6.18;35.77
46886;BME280;32622;48.202;11.326;2022-11-20T00:06:40;1013.68;;;6.34;34.85
46886;BME280;32622;48.202;11.326;2022-11-20T00:08:44;1013.67;;;6.47;35.46
46886;BME280;32622;48.202;11.326;2022-11-20T00:10:48;1013.88;;;5.65;36.18
46886;BME280;32622;48.202;11.326;2022-11-20T00:12:51;1013.76;;;6.06;35.79
46886;BME280;32622;48.202;11.326;2022-11-20T00:14:54;1013.62;;;6.77;35.11
46886;BME280;32622;48.202;11.326;2022-11-20T00:16:57;1013.96;;;5.35;36.41
46886;BME280;32622;48.202;11.326;2022-11-20T00:19:00;1013.62;;;6.75;35.10
46886;BME280;32622;48.202;11.326;2022-11-20T00:21:04;1013.80;;;5.94;35.89
46886;BME280;32622;48.202;11.326;2022-11-20T00:23:08;1013.76;;;6.20;35.70
46886;BME280;32622;48.202;11.326;2022-11-20T00:25:11;1013.83;;;6.02;36.06
46886;BME280;32622;48.202;11.326;2022-11-20T00:27:14;1013.78;;;6.18;35.80
46886;BME280;32622;48.202;11.326;2022-11-20T00:29:17;1013.67;;;6.83;35.15
46886;BME280;32622;48.202;11.326;2022-11-20T00:31:21;1013.66;;;6.76;35.03
46886;BME280;32622;48.202;11.326;2022-11-20T00:33:24;1013.75;;;6.38;35.30
46886;BME280;32622;48.202;11.326;2022-11-20T00:35:27;1013.60;;;6.92;34.55
46886;BME280;32622;48.202;11.326;2022-11-20T00:37:31;1013.76;;;6.42;34.71
46886;BME280;32622;48.202;11.326;2022-11-20T00:39:34;1013.86;;;5.96;34.92
46886;BME280;32622;48.202;11.326;2022-11-20T00:41:37;1013.81;;;6.25;35.29
46886;BME280;32622;48.202;11.326;2022-11-20T00:43:41;1014.03;;;5.61;36.01
46886;BME280;32622;48.202;11.326;2022-11-20T00:45:44;1013.76;;;6.51;35.20
46886;BME280;32622;48.202;11.326;2022-11-20T00:47:47;1013.79;;;6.36;35.13
46886;BME280;32622;48.202;11.326;2022-11-20T00:49:50;1014.01;;;5.43;35.57
46886;BME280;32622;48.202;11.326;2022-11-20T00:51:53;1013.80;;;6.45;35.19
46886;BME280;32622;48.202;11.326;2022-11-20T00:53:57;1013.72;;;6.77;34.88
46886;BME280;32622;48.202;11.326;2022-11-20T00:56:02;1013.65;;;7.09;34.69
46886;BME280;32622;48.202;11.326;2022-11-20T00:58:06;1013.75;;;6.71;34.61
46886;BME280;32622;48.202;11.326;2022-11-20T01:00:10;1014.02;;;5.70;35.71
46886;BME280;32622;48.202;11.326;2022-11-20T01:02:13;1014.30;;;4.49;37.06
46886;BME280;32622;48.202;11.326;2022-11-20T01:04:16;1014.11;;;5.39;36.50
46886;BME280;32622;48.202;11.326;2022-11-20T01:06:23;1014.08;;;5.52;36.47
46886;BME280;32622;48.202;11.326;2022-11-20T01:08:30;1014.20;;;5.19;36.49
46886;BME280;32622;48.202;11.326;2022-11-20T01:10:33;1014.07;;;5.90;35.89
46886;BME280;32622;48.202;11.326;2022-11-20T01:12:36;1014.01;;;6.17;35.49
46886;BME280;32622;48.202;11.326;2022-11-20T01:14:40;1014.20;;;5.43;36.35
46886;BME280;32622;48.202;11.326;2022-11-20T01:16:45;1014.15;;;5.68;35.94
46886;BME280;32622;48.202;11.326;2022-11-20T01:18:50;1014.15;;;5.64;35.81
46886;BME280;32622;48.202;11.326;2022-11-20T01:20:54;1014.10;;;6.06;35.43
46886;BME280;32622;48.202;11.326;2022-11-20T01:22:57;1014.32;;;5.28;36.23
46886;BME280;32622;48.202;11.326;2022-11-20T01:25:00;1014.13;;;6.20;35.43
46886;BME280;32622;48.202;11.326;2022-11-20T01:27:03;1014.38;;;4.98;36.70
46886;BME280;32622;48.202;11.326;2022-11-20T01:29:08;1014.26;;;5.56;35.99
46886;BME280;32622;48.202;11.326;2022-11-20T01:31:15;1014.24;;;5.62;35.85
46886;BME280;32622;48.202;11.326;2022-11-20T01:33:18;1014.30;;;5.47;35.89
46886;BME280;32622;48.202;11.326;2022-11-20T01:35:22;1014.19;;;5.81;35.75
46886;BME280;32622;48.202;11.326;2022-11-20T01:37:25;1014.21;;;5.85;35.65
46886;BME280;32622;48.202;11.326;2022-11-20T01:39:28;1014.36;;;5.31;36.19
46886;BME280;32622;48.202;11.326;2022-11-20T01:41:33;1014.27;;;5.74;35.70
46886;BME280;32622;48.202;11.326;2022-11-20T01:43:37;1014.14;;;6.31;35.18
46886;BME280;32622;48.202;11.326;2022-11-20T01:48:12;1014.38;;;5.46;35.87
46886;BME280;32622;48.202;11.326;2022-11-20T01:50:18;1014.23;;;6.16;35.41
46886;BME280;32622;48.202;11.326;2022-11-20T01:52:27;1014.38;;;5.47;35.87
46886;BME280;32622;48.202;11.326;2022-11-20T01:54:38;1014.20;;;6.22;35.47
46886;BME280;32622;48.202;11.326;2022-11-20T01:56:43;1014.41;;;5.40;36.25
46886;BME280;32622;48.202;11.326;2022-11-20T01:58:50;1014.27;;;6.02;35.55
46886;BME280;32622;48.202;11.326;2022-11-20T02:00:54;1014.18;;;6.39;35.43
46886;BME280;32622;48.202;11.326;2022-11-20T02:03:00;1014.28;;;6.05;35.43
46886;BME280;32622;48.202;11.326;2022-11-20T02:05:14;1014.28;;;6.17;35.36
46886;BME280;32622;48.202;11.326;2022-11-20T02:07:21;1014.41;;;5.53;35.74
46886;BME280;32622;48.202;11.326;2022-11-20T02:09:25;1014.45;;;5.52;35.42
46886;BME280;32622;48.202;11.326;2022-11-20T02:11:30;1014.32;;;6.19;35.33
46886;BME280;32622;48.202;11.326;2022-11-20T02:13:34;1014.56;;;5.10;36.38
46886;BME280;32622;48.202;11.326;2022-11-20T02:15:37;1014.44;;;5.60;36.14
46886;BME280;32622;48.202;11.326;2022-11-20T02:17:40;1014.34;;;6.14;35.34
46886;BME280;32622;48.202;11.326;2022-11-20T02:19:44;1014.28;;;6.38;35.15
46886;BME280;32622;48.202;11.326;2022-11-20T02:21:52;1014.51;;;5.32;35.50
46886;BME280;32622;48.202;11.326;2022-11-20T02:24:01;1014.42;;;5.79;35.56
46886;BME280;32622;48.202;11.326;2022-11-20T02:26:09;1014.51;;;5.36;35.99
46886;BME280;32622;48.202;11.326;2022-11-20T02:28:13;1014.34;;;6.24;35.24
46886;BME280;32622;48.202;11.326;2022-11-20T02:30:17;1014.31;;;6.21;34.93
46886;BME280;32622;48.202;11.326;2022-11-20T02:32:22;1014.25;;;6.33;34.88
46886;BME280;32622;48.202;11.326;2022-11-20T02:34:34;1014.34;;;6.00;34.56
46886;BME280;32622;48.202;11.326;2022-11-20T02:36:39;1014.29;;;6.33;34.93
46886;BME280;32622;48.202;11.326;2022-11-20T02:38:44;1014.44;;;5.70;34.85
46886;BME280;32622;48.202;11.326;2022-11-20T02:40:47;1014.50;;;5.45;35.70
46886;BME280;32622;48.202;11.326;2022-11-20T02:42:52;1014.59;;;5.20;36.77
46886;BME280;32622;48.202;11.326;2022-11-20T02:44:55;1014.54;;;5.34;35.98
46886;BME280;32622;48.202;11.326;2022-11-20T02:46:59;1014.41;;;5.83;35.46
46886;BME280;32622;48.202;11.326;2022-11-20T02:49:03;1014.61;;;4.80;36.84
46886;BME280;32622;48.202;11.326;2022-11-20T02:51:07;1014.55;;;5.06;36.24
46886;BME280;32622;48.202;11.326;2022-11-20T02:53:10;1014.73;;;4.42;37.71
46886;BME280;32622;48.202;11.326;2022-11-20T02:55:13;1014.51;;;5.27;36.50
46886;BME280;32622;48.202;11.326;2022-11-20T02:57:17;1014.55;;;5.03;36.57
46886;BME280;32622;48.202;11.326;2022-11-20T02:59:20;1014.41;;;5.53;35.97
46886;BME280;32622;48.202;11.326;2022-11-20T03:01:24;1014.28;;;5.96;35.31
46886;BME280;32622;48.202;11.326;2022-11-20T03:03:27;1014.41;;;5.49;36.13
46886;BME280;32622;48.202;11.326;2022-11-20T03:05:30;1014.25;;;6.05;35.21
46886;BME280;32622;48.202;11.326;2022-11-20T03:07:33;1014.37;;;5.44;35.46
46886;BME280;32622;48.202;11.326;2022-11-20T03:09:36;1014.27;;;5.80;35.58
46886;BME280;32622;48.202;11.326;2022-11-20T03:11:39;1014.34;;;5.45;35.41
46886;BME280;32622;48.202;11.326;2022-11-20T03:13:42;1014.24;;;5.91;35.42
46886;BME280;32622;48.202;11.326;2022-11-20T03:15:45;1014.50;;;4.68;36.22
46886;BME280;32622;48.202;11.326;2022-11-20T03:17:49;1014.29;;;5.75;35.23
46886;BME280;32622;48.202;11.326;2022-11-20T03:19:52;1014.32;;;5.63;35.28
46886;BME280;32622;48.202;11.326;2022-11-20T03:21:55;1014.39;;;5.31;35.31
46886;BME280;32622;48.202;11.326;2022-11-20T03:23:58;1014.25;;;5.76;35.62
46886;BME280;32622;48.202;11.326;2022-11-20T03:26:11;1014.27;;;5.47;35.45
46886;BME280;32622;48.202;11.326;2022-11-20T03:28:14;1014.53;;;4.31;36.80
46886;BME280;32622;48.202;11.326;2022-11-20T03:30:17;1014.50;;;4.44;36.83
46886;BME280;32622;48.202;11.326;2022-11-20T03:32:21;1014.46;;;4.64;36.70
46886;BME280;32622;48.202;11.326;2022-11-20T03:34:24;1014.42;;;4.75;36.34
46886;BME280;32622;48.202;11.326;2022-11-20T03:36:28;1014.44;;;4.78;36.47
46886;BME280;32622;48.202;11.326;2022-11-20T03:38:31;1014.42;;;4.94;35.88
46886;BME280;32622;48.202;11.326;2022-11-20T03:40:34;1014.37;;;5.28;35.49
46886;BME280;32622;48.202;11.326;2022-11-20T03:42:38;1014.34;;;5.45;35.46
46886;BME280;32622;48.202;11.326;2022-11-20T03:44:41;1014.16;;;6.22;35.05
46886;BME280;32622;48.202;11.326;2022-11-20T03:46:44;1014.34;;;5.51;35.39
46886;BME280;32622;48.202;11.326;2022-11-20T03:48:48;1014.31;;;5.50;34.97
46886;BME280;32622;48.202;11.326;2022-11-20T03:50:51;1014.34;;;5.45;35.19
46886;BME280;32622;48.202;11.326;2022-11-20T03:52:54;1014.42;;;5.17;35.85
46886;BME280;32622;48.202;11.326;2022-11-20T03:54:57;1014.59;;;4.47;36.44
46886;BME280;32622;48.202;11.326;2022-11-20T03:57:00;1014.61;;;4.51;36.40
46886;BME280;32622;48.202;11.326;2022-11-20T03:59:04;1014.71;;;4.24;37.04
46886;BME280;32622;48.202;11.326;2022-11-20T04:01:10;1014.47;;;5.04;36.16
46886;BME280;32622;48.202;11.326;2022-11-20T04:03:13;1014.72;;;4.06;36.86
46886;BME280;32622;48.202;11.326;2022-11-20T04:05:17;1014.45;;;5.06;36.06
46886;BME280;32622;48.202;11.326;2022-11-20T04:07:20;1014.34;;;5.57;35.53
46886;BME280;32622;48.202;11.326;2022-11-20T04:09:23;1014.58;;;4.58;36.46
46886;BME280;32622;48.202;11.326;2022-11-20T04:11:28;1014.41;;;5.00;36.07
46886;BME280;32622;48.202;11.326;2022-11-20T04:13:32;1014.36;;;5.21;35.87
46886;BME280;32622;48.202;11.326;2022-11-20T04:15:35;1014.38;;;5.04;36.08
46886;BME280;32622;48.202;11.326;2022-11-20T04:17:38;1014.55;;;4.34;36.79
46886;BME280;32622;48.202;11.326;2022-11-20T04:19:41;1014.24;;;5.54;36.00
46886;BME280;32622;48.202;11.326;2022-11-20T04:21:45;1014.32;;;5.25;35.68
46886;BME280;32622;48.202;11.326;2022-11-20T04:23:48;1014.31;;;5.39;35.48
46886;BME280;32622;48.202;11.326;2022-11-20T04:25:52;1014.25;;;5.65;35.11
46886;BME280;32622;48.202;11.326;2022-11-20T04:27:55;1014.23;;;5.67;34.90
46886;BME280;32622;48.202;11.326;2022-11-20T04:29:58;1014.29;;;5.43;34.96
46886;BME280;32622;48.202;11.326;2022-11-20T04:32:02;1014.30;;;5.38;35.26
46886;BME280;32622;48.202;11.326;2022-11-20T04:34:06;1014.49;;;4.75;35.52
46886;BME280;32622;48.202;11.326;2022-11-20T04:36:12;1014.25;;;5.72;34.89
46886;BME280;32622;48.202;11.326;2022-11-20T04:38:16;1014.33;;;5.50;35.10
46886;BME280;32622;48.202;11.326;2022-11-20T04:40:19;1014.33;;;5.48;34.89
46886;BME280;32622;48.202;11.326;2022-11-20T04:42:22;1014.45;;;5.05;35.30
46886;BME280;32622;48.202;11.326;2022-11-20T04:44:25;1014.22;;;6.03;34.40
46886;BME280;32622;48.202;11.326;2022-11-20T04:46:31;1014.53;;;4.65;36.18
46886;BME280;32622;48.202;11.326;2022-11-20T04:48:35;1014.52;;;4.91;35.56
46886;BME280;32622;48.202;11.326;2022-11-20T04:50:40;1014.37;;;5.55;35.16
46886;BME280;32622;48.202;11.326;2022-11-20T04:52:44;1014.39;;;5.49;35.27
46886;BME280;32622;48.202;11.326;2022-11-20T04:55:01;1014.23;;;6.07;34.88
46886;BME280;32622;48.202;11.326;2022-11-20T04:57:04;1014.24;;;5.89;34.47
46886;BME280;32622;48.202;11.326;2022-11-20T04:59:07;1014.33;;;5.52;34.74
46886;BME280;32622;48.202;11.326;2022-11-20T05:01:12;1014.52;;;4.68;35.43
46886;BME280;32622;48.202;11.326;2022-11-20T05:03:15;1014.37;;;5.35;34.89
46886;BME280;32622;48.202;11.326;2022-11-20T05:05:18;1014.26;;;5.71;34.45
46886;BME280;32622;48.202;11.326;2022-11-20T05:07:21;1014.21;;;5.92;34.66
46886;BME280;32622;48.202;11.326;2022-11-20T05:09:24;1014.31;;;5.46;35.08
46886;BME280;32622;48.202;11.326;2022-11-20T05:11:28;1014.23;;;5.80;34.17
46886;BME280;32622;48.202;11.326;2022-11-20T05:13:31;1014.24;;;5.76;34.55
46886;BME280;32622;48.202;11.326;2022-11-20T05:15:34;1014.22;;;5.88;34.35
46886;BME280;32622;48.202;11.326;2022-11-20T05:17:37;1014.27;;;5.61;34.59
46886;BME280;32622;48.202;11.326;2022-11-20T05:19:40;1014.56;;;4.54;35.47
46886;BME280;32622;48.202;11.326;2022-11-20T05:21:43;1014.49;;;4.67;35.37
46886;BME280;32622;48.202;11.326;2022-11-20T05:23:46;1014.43;;;5.08;35.63
46886;BME280;32622;48.202;11.326;2022-11-20T05:25:52;1014.45;;;4.85;35.74
46886;BME280;32622;48.202;11.326;2022-11-20T05:27:55;1014.63;;;4.30;36.40
46886;BME280;32622;48.202;11.326;2022-11-20T05:29:58;1014.60;;;4.55;36.17
46886;BME280;32622;48.202;11.326;2022-11-20T05:32:01;1014.45;;;5.12;35.63
46886;BME280;32622;48.202;11.326;2022-11-20T05:34:04;1014.54;;;4.84;35.56
46886;BME280;32622;48.202;11.326;2022-11-20T05:36:07;1014.47;;;5.09;35.82
46886;BME280;32622;48.202;11.326;2022-11-20T05:38:11;1014.50;;;4.87;35.52
46886;BME280;32622;48.202;11.326;2022-11-20T05:40:14;1014.57;;;4.59;35.47
46886;BME280;32622;48.202;11.326;2022-11-20T05:42:17;1014.42;;;5.18;35.10
46886;BME280;32622;48.202;11.326;2022-11-20T05:44:20;1014.43;;;5.05;35.22
46886;BME280;32622;48.202;11.326;2022-11-20T05:46:23;1014.27;;;5.78;34.92
46886;BME280;32622;48.202;11.326;2022-11-20T05:48:26;1014.47;;;4.82;35.49
46886;BME280;32622;48.202;11.326;2022-11-20T05:50:30;1014.40;;;5.04;35.01
46886;BME280;32622;48.202;11.326;2022-11-20T05:52:33;1014.58;;;4.32;35.96
46886;BME280;32622;48.202;11.326;2022-11-20T05:54:36;1014.40;;;5.11;35.13
46886;BME280;32622;48.202;11.326;2022-11-20T05:56:39;1014.49;;;4.84;35.93
46886;BME280;32622;48.202;11.326;2022-11-20T05:58:42;1014.67;;;4.02;35.98
46886;BME280;32622;48.202;11.326;2022-11-20T06:00:45;1014.57;;;4.43;35.46
46886;BME280;32622;48.202;11.326;2022-11-20T06:02:48;1014.53;;;4.58;35.57
46886;BME280;32622;48.202;11.326;2022-11-20T06:04:51;1014.54;;;4.47;35.79
46886;BME280;32622;48.202;11.326;2022-11-20T06:06:54;1014.74;;;3.92;36.63
46886;BME280;32622;48.202;11.326;2022-11-20T06:08:57;1014.92;;;3.24;36.98
46886;BME280;32622;48.202;11.326;2022-11-20T06:11:04;1014.55;;;4.34;35.83
46886;BME280;32622;48.202;11.326;2022-11-20T06:13:07;1014.56;;;4.33;35.29
46886;BME280;32622;48.202;11.326;2022-11-20T06:15:10;1014.58;;;4.45;35.66
46886;BME280;32622;48.202;11.326;2022-11-20T06:17:13;1014.73;;;4.08;35.76
46886;BME280;32622;48.202;11.326;2022-11-20T06:19:17;1014.56;;;4.63;35.33
46886;BME280;32622;48.202;11.326;2022-11-20T06:21:21;1014.59;;;4.64;35.06
46886;BME280;32622;48.202;11.326;2022-11-20T06:23:24;1014.89;;;3.63;35.72
46886;BME280;32622;48.202;11.326;2022-11-20T06:25:28;1014.82;;;3.85;35.55
46886;BME280;32622;48.202;11.326;2022-11-20T06:27:31;1014.93;;;3.44;35.90
46886;BME280;32622;48.202;11.326;2022-11-20T06:29:34;1014.67;;;4.39;35.61
46886;BME280;32622;48.202;11.326;2022-11-20T06:31:37;1014.48;;;5.06;34.87
46886;BME280;32622;48.202;11.326;2022-11-20T06:33:40;1014.49;;;5.11;34.35
46886;BME280;32622;48.202;11.326;2022-11-20T06:35:43;1014.49;;;5.27;34.08
46886;BME280;32622;48.202;11.326;2022-11-20T06:37:47;1014.52;;;5.15;33.83
46886;BME280;32622;48.202;11.326;2022-11-20T06:39:50;1014.63;;;4.68;34.19
46886;BME280;32622;48.202;11.326;2022-11-20T06:41:53;1014.93;;;3.90;35.24
46886;BME280;32622;48.202;11.326;2022-11-20T06:43:56;1014.74;;;4.75;34.59
46886;BME280;32622;48.202;11.326;2022-11-20T06:45:59;1014.82;;;4.38;34.68
46886;BME280;32622;48.202;11.326;2022-11-20T06:48:02;1014.95;;;4.16;34.99
46886;BME280;32622;48.202;11.326;2022-11-20T06:50:06;1014.82;;;4.65;34.59
46886;BME280;32622;48.202;11.326;2022-11-20T06:52:09;1015.20;;;3.38;35.70
46886;BME280;32622;48.202;11.326;2022-11-20T06:54:12;1014.89;;;4.64;34.71
46886;BME280;32622;48.202;11.326;2022-11-20T06:56:16;1014.95;;;4.50;34.49
46886;BME280;32622;48.202;11.326;2022-11-20T06:58:19;1014.92;;;4.87;34.42
46886;BME280;32622;48.202;11.326;2022-11-20T07:00:22;1015.22;;;3.76;36.05
46886;BME280;32622;48.202;11.326;2022-11-20T07:02:25;1015.15;;;4.18;35.49
46886;BME280;32622;48.202;11.326;2022-11-20T07:04:28;1015.25;;;3.84;35.77
46886;BME280;32622;48.202;11.326;2022-11-20T07:06:31;1014.94;;;4.94;34.86
46886;BME280;32622;48.202;11.326;2022-11-20T07:08:35;1015.23;;;4.07;35.53
46886;BME280;32622;48.202;11.326;2022-11-20T07:10:38;1015.13;;;4.36;34.98
46886;BME280;32622;48.202;11.326;2022-11-20T07:12:41;1014.99;;;4.88;34.53
46886;BME280;32622;48.202;11.326;2022-11-20T07:14:44;1015.01;;;4.82;34.52
46886;BME280;32622;48.202;11.326;2022-11-20T07:16:47;1015.15;;;4.40;34.60
46886;BME280;32622;48.202;11.326;2022-11-20T07:18:51;1014.97;;;5.06;33.88
46886;BME280;32622;48.202;11.326;2022-11-20T07:20:54;1015.13;;;4.43;34.42
46886;BME280;32622;48.202;11.326;2022-11-20T07:22:58;1015.29;;;4.05;35.13
46886;BME280;32622;48.202;11.326;2022-11-20T07:25:02;1015.31;;;3.96;35.38
46886;BME280;32622;48.202;11.326;2022-11-20T07:27:06;1015.33;;;3.92;35.48
46886;BME280;32622;48.202;11.326;2022-11-20T07:29:08;1015.25;;;4.24;35.75
46886;BME280;32622;48.202;11.326;2022-11-20T07:31:11;1015.32;;;3.99;35.85
46886;BME280;32622;48.202;11.326;2022-11-20T07:33:14;1015.19;;;4.28;35.01
46886;BME280;32622;48.202;11.326;2022-11-20T07:35:17;1015.02;;;4.99;34.58
46886;BME280;32622;48.202;11.326;2022-11-20T07:37:20;1015.01;;;5.03;34.43
46886;BME280;32622;48.202;11.326;2022-11-20T07:39:23;1015.15;;;4.67;34.94
46886;BME280;32622;48.202;11.326;2022-11-20T07:41:26;1015.16;;;4.64;35.01
46886;BME280;32622;48.202;11.326;2022-11-20T07:43:30;1014.88;;;5.72;34.14
46886;BME280;32622;48.202;11.326;2022-11-20T07:45:33;1015.21;;;4.49;35.18
46886;BME280;32622;48.202;11.326;2022-11-20T07:47:36;1015.39;;;3.76;35.84
46886;BME280;32622;48.202;11.326;2022-11-20T07:49:40;1015.30;;;4.28;35.75
46886;BME280;32622;48.202;11.326;2022-11-20T07:51:43;1015.30;;;4.46;35.66
46886;BME280;32622;48.202;11.326;2022-11-20T07:53:46;1015.50;;;3.58;36.57
46886;BME280;32622;48.202;11.326;2022-11-20T07:55:49;1015.30;;;4.19;35.35
46886;BME280;32622;48.202;11.326;2022-11-20T07:57:54;1015.32;;;4.28;35.64
46886;BME280;32622;48.202;11.326;2022-11-20T07:59:58;1015.46;;;3.91;36.17
46886;BME280;32622;48.202;11.326;2022-11-20T08:02:01;1015.45;;;4.05;36.11
46886;BME280;32622;48.202;11.326;2022-11-20T08:04:04;1015.49;;;4.02;36.18
46886;BME280;32622;48.202;11.326;2022-11-20T08:06:08;1015.55;;;3.73;36.57
46886;BME280;32622;48.202;11.326;2022-11-20T08:08:11;1015.56;;;3.74;36.61
46886;BME280;32622;48.202;11.326;2022-11-20T08:10:15;1015.53;;;3.86;36.51
46886;BME280;32622;48.202;11.326;2022-11-20T08:12:20;1015.65;;;3.23;37.76
46886;BME280;32622;48.202;11.326;2022-11-20T08:14:23;1015.52;;;3.78;37.35
46886;BME280;32622;48.202;11.326;2022-11-20T08:16:26;1015.33;;;4.39;36.00
46886;BME280;32622;48.202;11.326;2022-11-20T08:18:29;1015.22;;;4.83;36.21
46886;BME280;32622;48.202;11.326;2022-11-20T08:20:32;1015.46;;;4.01;36.02
46886;BME280;32622;48.202;11.326;2022-11-20T08:22:36;1015.44;;;3.85;36.47
46886;BME280;32622;48.202;11.326;2022-11-20T08:24:39;1015.36;;;4.14;36.63
46886;BME280;32622;48.202;11.326;2022-11-20T08:26:41;1015.46;;;3.75;37.13
46886;BME280;32622;48.202;11.326;2022-11-20T08:28:44;1015.53;;;3.53;37.38
46886;BME280;32622;48.202;11.326;2022-11-20T08:30:47;1015.45;;;4.02;37.00
46886;BME280;32622;48.202;11.326;2022-11-20T08:32:50;1015.32;;;4.59;36.97
46886;BME280;32622;48.202;11.326;2022-11-20T08:34:53;1015.49;;;3.69;37.12
46886;BME280;32622;48.202;11.326;2022-11-20T08:36:56;1015.39;;;4.28;36.37
46886;BME280;32622;48.202;11.326;2022-11-20T08:39:00;1015.56;;;3.56;36.23
46886;BME280;32622;48.202;11.326;2022-11-20T08:41:04;1015.47;;;4.04;37.39
46886;BME280;32622;48.202;11.326;2022-11-20T08:43:07;1015.58;;;3.67;37.30
46886;BME280;32622;48.202;11.326;2022-11-20T08:45:10;1015.67;;;3.20;37.19
46886;BME280;32622;48.202;11.326;2022-11-20T08:47:13;1015.57;;;3.70;37.10
46886;BME280;32622;48.202;11.326;2022-11-20T08:49:17;1015.42;;;4.32;36.53
46886;BME280;32622;48.202;11.326;2022-11-20T08:51:20;1015.45;;;4.18;36.18
46886;BME280;32622;48.202;11.326;2022-11-20T08:53:24;1015.45;;;4.23;36.21
46886;BME280;32622;48.202;11.326;2022-11-20T08:55:27;1015.28;;;4.79;35.20
46886;BME280;32622;48.202;11.326;2022-11-20T08:57:31;1015.39;;;4.46;35.57
46886;BME280;32622;48.202;11.326;2022-11-20T08:59:35;1015.44;;;4.14;36.42
46886;BME280;32622;48.202;11.326;2022-11-20T09:01:38;1015.57;;;3.63;37.06
46886;BME280;32622;48.202;11.326;2022-11-20T09:03:41;1015.37;;;4.43;36.51
46886;BME280;32622;48.202;11.326;2022-11-20T09:05:44;1015.45;;;4.00;36.31
46886;BME280;32622;48.202;11.326;2022-11-20T09:07:47;1015.26;;;4.67;35.60
46886;BME280;32622;48.202;11.326;2022-11-20T09:09:50;1015.18;;;4.98;35.57
46886;BME280;32622;48.202;11.326;2022-11-20T09:11:53;1015.43;;;4.05;35.94
46886;BME280;32622;48.202;11.326;2022-11-20T09:13:56;1015.40;;;4.35;35.89
46886;BME280;32622;48.202;11.326;2022-11-20T09:16:02;1015.41;;;4.19;35.77
46886;BME280;32622;48.202;11.326;2022-11-20T09:18:06;1015.19;;;4.67;35.05
46886;BME280;32622;48.202;11.326;2022-11-20T09:20:09;1014.99;;;5.46;34.51
46886;BME280;32622;48.202;11.326;2022-11-20T09:22:12;1015.11;;;4.85;34.95
46886;BME280;32622;48.202;11.326;2022-11-20T09:24:16;1015.01;;;5.30;34.47
46886;BME280;32622;48.202;11.326;2022-11-20T09:26:19;1014.95;;;5.39;34.35
46886;BME280;32622;48.202;11.326;2022-11-20T09:28:22;1015.08;;;4.79;34.57
46886;BME280;32622;48.202;11.326;2022-11-20T09:30:26;1014.89;;;5.53;34.11
46886;BME280;32622;48.202;11.326;2022-11-20T09:32:29;1014.86;;;5.65;33.68
46886;BME280;32622;48.202;11.326;2022-11-20T09:34:32;1014.96;;;5.15;34.30
46886;BME280;32622;48.202;11.326;2022-11-20T09:36:35;1014.77;;;5.80;33.95
46886;BME280;32622;48.202;11.326;2022-11-20T09:38:38;1014.89;;;5.18;34.47
46886;BME280;32622;48.202;11.326;2022-11-20T09:40:46;1014.91;;;5.07;34.24
46886;BME280;32622;48.202;11.326;2022-11-20T09:42:57;1014.92;;;4.86;35.26
46886;BME280;32622;48.202;11.326;2022-11-20T09:45:23;1014.70;;;5.76;34.46
46886;BME280;32622;48.202;11.326;2022-11-20T09:47:36;1014.70;;;5.65;34.19
46886;BME280;32622;48.202;11.326;2022-11-20T09:49:58;1014.59;;;5.85;34.42
46886;BME280;32622;48.202;11.326;2022-11-20T09:52:12;1014.60;;;5.87;34.77
46886;BME280;32622;48.202;11.326;2022-11-20T09:54:19;1014.76;;;5.14;34.80
46886;BME280;32622;48.202;11.326;2022-11-20T09:56:23;1014.57;;;6.09;33.52
46886;BME280;32622;48.202;11.326;2022-11-20T09:58:32;1014.61;;;5.68;33.96
46886;BME280;32622;48.202;11.326;2022-11-20T10:00:37;1014.69;;;5.62;34.12
46886;BME280;32622;48.202;11.326;2022-11-20T10:02:44;1014.78;;;5.15;35.17
46886;BME280;32622;48.202;11.326;2022-11-20T10:04:53;1014.76;;;5.44;34.16
46886;BME280;32622;48.202;11.326;2022-11-20T10:07:03;1015.00;;;4.66;35.28
46886;BME280;32622;48.202;11.326;2022-11-20T10:09:20;1014.95;;;4.69;35.57
46886;BME280;32622;48.202;11.326;2022-11-20T10:11:33;1014.88;;;5.02;35.48
46886;BME280;32622;48.202;11.326;2022-11-20T10:13:46;1014.79;;;5.53;34.56
46886;BME280;32622;48.202;11.326;2022-11-20T10:16:03;1015.16;;;4.29;36.71
46886;BME280;32622;48.202;11.326;2022-11-20T10:18:22;1014.94;;;4.71;35.79
46886;BME280;32622;48.202;11.326;2022-11-20T10:20:30;1014.90;;;4.95;35.30
46886;BME280;32622;48.202;11.326;2022-11-20T10:22:47;1014.96;;;4.81;35.65
46886;BME280;32622;48.202;11.326;2022-11-20T10:24:56;1015.18;;;4.26;36.74
46886;BME280;32622;48.202;11.326;2022-11-20T10:27:12;1014.96;;;4.80;36.02
46886;BME280;32622;48.202;11.326;2022-11-20T10:29:21;1015.08;;;4.36;36.60
46886;BME280;32622;48.202;11.326;2022-11-20T10:31:30;1014.95;;;4.94;36.05
46886;BME280;32622;48.202;11.326;2022-11-20T10:33:38;1014.87;;;5.10;36.03
46886;BME280;32622;48.202;11.326;2022-11-20T10:35:45;1014.95;;;4.87;36.08
46886;BME280;32622;48.202;11.326;2022-11-20T10:37:56;1015.06;;;4.52;37.05
46886;BME280;32622;48.202;11.326;2022-11-20T10:40:04;1015.18;;;4.32;37.25
46886;BME280;32622;48.202;11.326;2022-11-20T10:42:12;1015.22;;;4.12;37.44
46886;BME280;32622;48.202;11.326;2022-11-20T10:44:19;1014.83;;;5.54;35.95
46886;BME280;32622;48.202;11.326;2022-11-20T10:46:24;1014.75;;;5.54;35.50
46886;BME280;32622;48.202;11.326;2022-11-20T10:48:29;1014.92;;;4.78;35.00
46886;BME280;32622;48.202;11.326;2022-11-20T10:50:35;1015.12;;;4.12;35.95
46886;BME280;32622;48.202;11.326;2022-11-20T10:52:48;1014.98;;;4.81;35.94
46886;BME280;32622;48.202;11.326;2022-11-20T10:55:01;1014.95;;;5.20;35.85
46886;BME280;32622;48.202;11.326;2022-11-20T10:57:46;1015.30;;;3.90;37.49
46886;BME280;32622;48.202;11.326;2022-11-20T11:00:04;1015.42;;;3.26;37.73
46886;BME280;32622;48.202;11.326;2022-11-20T11:02:16;1015.24;;;3.83;37.76
46886;BME280;32622;48.202;11.326;2022-11-20T11:04:30;1015.17;;;4.20;37.27
46886;BME280;32622;48.202;11.326;2022-11-20T11:06:37;1015.26;;;3.44;37.65
46886;BME280;32622;48.202;11.326;2022-11-20T11:08:42;1015.18;;;3.59;37.88
46886;BME280;32622;48.202;11.326;2022-11-20T11:10:48;1015.18;;;3.66;37.70